createdAt,value
2017-12-19T00:01:47.982Z,75.99
2017-12-19T00:04:17.222Z,75.86
2017-12-19T00:06:47.640Z,75.51
2017-12-19T00:09:16.909Z,75.57
2017-12-19T00:11:46.502Z,75.51
2017-12-19T00:14:16.029Z,75.20
2017-12-19T00:16:45.375Z,75.12
2017-12-19T00:19:14.685Z,75.20
2017-12-19T00:21:44.124Z,75.19
2017-12-19T00:24:14.189Z,75.43
2017-12-19T00:26:43.879Z,75.25
2017-12-19T00:29:13.203Z,74.67
2017-12-19T00:31:42.508Z,74.51
2017-12-19T00:34:12.035Z,74.66
2017-12-19T00:36:41.304Z,74.61
2017-12-19T00:39:12.174Z,74.48
2017-12-19T00:41:41.823Z,74.55
2017-12-19T00:44:11.034Z,74.53
2017-12-19T00:46:40.395Z,74.42
2017-12-19T00:49:09.921Z,74.40
2017-12-19T00:51:39.156Z,74.42
2017-12-19T00:54:08.475Z,74.37
2017-12-19T00:56:38.029Z,74.41
2017-12-19T00:59:09.747Z,74.25
2017-12-19T01:01:38.975Z,74.50
2017-12-19T01:04:08.572Z,74.44
2017-12-19T01:06:37.885Z,74.37
2017-12-19T01:09:07.130Z,74.53
2017-12-19T01:11:36.944Z,74.30
2017-12-19T01:14:06.489Z,73.74
2017-12-19T01:16:36.244Z,73.86
2017-12-19T01:19:05.971Z,74.31
2017-12-19T01:21:35.224Z,73.78
2017-12-19T01:24:06.426Z,73.70
2017-12-19T01:26:36.074Z,73.83
2017-12-19T01:29:05.290Z,74.14
2017-12-19T01:31:34.661Z,74.00
2017-12-19T01:34:06.332Z,74.06
2017-12-19T01:36:35.570Z,73.85
2017-12-19T01:39:05.234Z,74.33
2017-12-19T01:41:34.797Z,74.61
2017-12-19T01:44:05.295Z,74.62
2017-12-19T01:46:34.499Z,74.55
2017-12-19T01:49:06.255Z,74.64
2017-12-19T01:51:35.538Z,74.50
2017-12-19T01:54:05.672Z,74.38
2017-12-19T01:56:35.247Z,74.33
2017-12-19T01:59:04.739Z,74.07
2017-12-19T02:01:34.012Z,73.96
2017-12-19T02:04:05.615Z,74.17
2017-12-19T02:06:35.759Z,74.13
2017-12-19T02:09:06.023Z,74.41
2017-12-19T02:11:35.590Z,74.53
2017-12-19T02:14:06.754Z,74.44
2017-12-19T02:16:36.090Z,74.53
2017-12-19T02:19:05.830Z,74.72
2017-12-19T02:21:35.185Z,74.86
2017-12-19T02:24:06.613Z,74.46
2017-12-19T02:26:36.244Z,74.40
2017-12-19T02:29:05.612Z,74.20
2017-12-19T02:31:35.025Z,74.41
2017-12-19T02:34:05.493Z,74.11
2017-12-19T02:36:34.870Z,74.29
2017-12-19T02:39:04.740Z,74.32
2017-12-19T02:41:34.346Z,74.16
2017-12-19T02:44:05.265Z,73.91
2017-12-19T02:46:34.758Z,73.98
2017-12-19T02:49:04.865Z,74.17
2017-12-19T02:51:34.189Z,74.54
2017-12-19T02:54:04.108Z,74.65
2017-12-19T02:56:33.763Z,74.57
2017-12-19T02:59:03.319Z,74.58
2017-12-19T03:01:32.795Z,74.28
2017-12-19T03:04:04.069Z,74.40
2017-12-19T03:06:33.375Z,74.96
2017-12-19T03:09:03.158Z,74.91
2017-12-19T03:11:32.858Z,75.09
2017-12-19T03:14:12.302Z,74.86
2017-12-19T03:16:44.205Z,74.37
2017-12-19T03:19:18.571Z,74.70
2017-12-19T03:21:55.543Z,74.79
2017-12-19T03:24:29.954Z,74.37
2017-12-19T03:26:59.713Z,74.89
2017-12-19T03:29:32.091Z,74.38
2017-12-19T03:32:04.585Z,74.55
2017-12-19T03:34:34.397Z,74.87
2017-12-19T03:37:04.296Z,74.55
2017-12-19T03:39:34.467Z,74.41
2017-12-19T03:42:05.750Z,74.44
2017-12-19T03:44:35.152Z,74.34
2017-12-19T03:47:05.040Z,74.70
2017-12-19T03:49:34.395Z,74.81
2017-12-19T03:52:04.751Z,74.50
2017-12-19T03:54:34.354Z,74.33
2017-12-19T03:57:03.894Z,74.16
2017-12-19T03:59:33.544Z,74.70
2017-12-19T04:02:04.264Z,74.63
2017-12-19T04:04:33.567Z,74.65
2017-12-19T04:07:04.178Z,74.51
2017-12-19T04:09:33.777Z,74.40
2017-12-19T04:12:04.119Z,74.16
2017-12-19T04:14:33.500Z,74.14
2017-12-19T04:17:03.296Z,74.25
2017-12-19T04:19:32.554Z,74.40
2017-12-19T04:22:03.071Z,74.76
2017-12-19T04:24:32.714Z,74.15
2017-12-19T04:27:02.359Z,74.14
2017-12-19T04:29:31.671Z,74.40
2017-12-19T04:32:15.699Z,74.37
2017-12-19T04:34:45.828Z,74.24
2017-12-19T04:37:15.412Z,74.48
2017-12-19T04:39:44.787Z,74.57
2017-12-19T04:42:14.054Z,75.07
2017-12-19T04:44:43.664Z,75.47
2017-12-19T04:47:12.948Z,75.33
2017-12-19T04:49:42.237Z,74.96
2017-12-19T04:52:11.795Z,75.12
2017-12-19T04:54:41.034Z,74.98
2017-12-19T04:57:10.328Z,75.14
2017-12-19T04:59:39.848Z,75.05
2017-12-19T05:02:09.131Z,74.82
2017-12-19T05:04:38.374Z,74.99
2017-12-19T05:07:07.894Z,74.74
2017-12-19T05:09:37.207Z,74.70
2017-12-19T05:12:07.316Z,74.46
2017-12-19T05:14:36.617Z,74.50
2017-12-19T05:17:05.941Z,74.44
2017-12-19T05:19:35.476Z,74.33
2017-12-19T05:22:05.624Z,74.23
2017-12-19T05:24:34.916Z,74.17
2017-12-19T05:27:04.707Z,74.23
2017-12-19T05:29:33.981Z,74.25
2017-12-19T05:32:05.004Z,74.22
2017-12-19T05:34:34.225Z,74.38
2017-12-19T05:37:03.762Z,74.44
2017-12-19T05:39:33.382Z,74.72
2017-12-19T05:42:03.551Z,74.34
2017-12-19T05:44:32.886Z,74.09
2017-12-19T05:47:03.240Z,73.89
2017-12-19T05:49:32.736Z,73.44
2017-12-19T05:52:04.101Z,73.91
2017-12-19T05:54:33.408Z,74.24
2017-12-19T05:57:03.402Z,74.54
2017-12-19T05:59:32.942Z,74.01
2017-12-19T06:02:03.236Z,73.55
2017-12-19T06:04:32.547Z,74.01
2017-12-19T06:07:02.257Z,73.91
2017-12-19T06:09:31.858Z,73.81
2017-12-19T06:12:02.100Z,73.83
2017-12-19T06:14:31.719Z,73.62
2017-12-19T06:17:01.240Z,72.91
2017-12-19T06:19:30.968Z,72.75
2017-12-19T06:22:00.278Z,72.34
2017-12-19T06:24:29.545Z,72.08
2017-12-19T06:26:59.171Z,72.29
2017-12-19T06:29:28.461Z,72.48
2017-12-19T06:31:57.838Z,72.36
2017-12-19T06:34:27.131Z,72.35
2017-12-19T06:36:56.448Z,72.05
2017-12-19T06:39:26.041Z,71.65
2017-12-19T06:41:55.312Z,72.06
2017-12-19T06:44:24.626Z,72.08
2017-12-19T06:46:55.214Z,71.82
2017-12-19T06:49:24.475Z,71.87
2017-12-19T06:51:53.803Z,71.88
2017-12-19T06:54:23.182Z,72.06
2017-12-19T06:56:52.971Z,72.21
2017-12-19T06:59:22.642Z,72.46
2017-12-19T07:01:51.983Z,72.12
2017-12-19T07:04:21.304Z,72.34
2017-12-19T07:06:51.920Z,72.23
2017-12-19T07:09:21.349Z,71.95
2017-12-19T07:11:50.623Z,71.98
2017-12-19T07:14:20.010Z,72.21
2017-12-19T07:16:50.168Z,72.32
2017-12-19T07:19:19.677Z,72.38
2017-12-19T07:21:49.096Z,72.32
2017-12-19T07:24:18.771Z,72.19
2017-12-19T07:26:48.475Z,72.19
2017-12-19T07:29:17.853Z,71.94
2017-12-19T07:31:47.238Z,71.77
2017-12-19T07:34:16.579Z,71.56
2017-12-19T07:36:45.989Z,71.27
2017-12-19T07:39:15.566Z,72.12
2017-12-19T07:41:45.032Z,71.90
2017-12-19T07:44:14.397Z,71.93
2017-12-19T07:46:44.010Z,72.09
2017-12-19T07:49:13.371Z,72.08
2017-12-19T07:51:42.621Z,71.56
2017-12-19T07:54:12.503Z,71.34
2017-12-19T07:56:41.763Z,71.28
2017-12-19T07:59:11.091Z,71.55
2017-12-19T08:01:40.650Z,71.20
2017-12-19T08:04:09.941Z,71.47
2017-12-19T08:06:39.162Z,71.20
2017-12-19T08:09:08.849Z,71.22
2017-12-19T08:11:38.156Z,71.21
2017-12-19T08:14:07.937Z,70.61
2017-12-19T08:16:37.788Z,70.32
2017-12-19T08:19:07.128Z,70.48
2017-12-19T08:21:36.431Z,70.50
2017-12-19T08:24:07.507Z,70.96
2017-12-19T08:26:36.883Z,71.09
2017-12-19T08:29:06.397Z,70.59
2017-12-19T08:31:35.953Z,70.26
2017-12-19T08:34:06.477Z,70.01
2017-12-19T08:36:35.778Z,69.92
2017-12-19T08:39:05.626Z,70.19
2017-12-19T08:41:34.864Z,70.57
2017-12-19T08:44:05.227Z,70.35
2017-12-19T08:46:34.807Z,70.06
2017-12-19T08:49:06.097Z,69.67
2017-12-19T08:51:35.550Z,69.53
2017-12-19T08:54:07.130Z,69.58
2017-12-19T08:56:36.909Z,69.83
2017-12-19T08:59:06.764Z,69.69
2017-12-19T09:01:36.364Z,69.48
2017-12-19T09:04:07.034Z,69.87
2017-12-19T09:06:36.295Z,70.30
2017-12-19T09:09:06.621Z,70.26
2017-12-19T09:11:35.882Z,70.01
2017-12-19T09:14:06.907Z,69.76
2017-12-19T09:16:36.461Z,69.76
2017-12-19T09:19:06.044Z,69.43
2017-12-19T09:21:35.327Z,69.37
2017-12-19T09:24:05.822Z,69.49
2017-12-19T09:26:36.706Z,69.59
2017-12-19T09:29:06.015Z,68.95
2017-12-19T09:31:35.563Z,68.61
2017-12-19T09:34:06.200Z,68.56
2017-12-19T09:36:35.429Z,68.38
2017-12-19T09:39:05.810Z,68.06
2017-12-19T09:41:35.067Z,67.78
2017-12-19T09:44:06.262Z,67.71
2017-12-19T09:46:35.781Z,67.54
2017-12-19T09:49:06.588Z,67.09
2017-12-19T09:51:35.834Z,67.18
2017-12-19T09:54:05.974Z,66.96
2017-12-19T09:56:35.215Z,67.60
2017-12-19T09:59:05.148Z,67.54
2017-12-19T10:01:34.723Z,67.30
2017-12-19T10:04:05.315Z,67.57
2017-12-19T10:06:35.514Z,66.82
2017-12-19T10:09:06.027Z,66.69
2017-12-19T10:11:35.534Z,66.52
2017-12-19T10:14:07.350Z,66.31
2017-12-19T10:16:36.911Z,66.30
2017-12-19T10:19:06.851Z,67.49
2017-12-19T10:21:36.313Z,67.00
2017-12-19T10:24:06.908Z,66.44
2017-12-19T10:26:36.277Z,66.58
2017-12-19T10:29:05.735Z,66.96
2017-12-19T10:31:35.376Z,67.05
2017-12-19T10:34:05.968Z,67.04
2017-12-19T10:36:35.453Z,67.32
2017-12-19T10:39:06.035Z,67.04
2017-12-19T10:41:35.443Z,66.93
2017-12-19T10:44:06.890Z,67.41
2017-12-19T10:46:36.458Z,66.70
2017-12-19T10:49:05.803Z,66.12
2017-12-19T10:51:35.440Z,66.57
2017-12-19T10:54:06.640Z,67.02
2017-12-19T10:56:36.020Z,66.45
2017-12-19T10:59:05.737Z,65.99
2017-12-19T11:01:35.012Z,66.18
2017-12-19T11:04:05.168Z,66.17
2017-12-19T11:06:34.400Z,67.31
2017-12-19T11:09:04.279Z,66.80
2017-12-19T11:11:33.847Z,67.00
2017-12-19T11:14:04.137Z,66.60
2017-12-19T11:16:33.434Z,67.26
2017-12-19T11:19:03.635Z,67.78
2017-12-19T11:21:32.919Z,67.19
2017-12-19T11:24:04.111Z,67.21
2017-12-19T11:26:33.543Z,67.00
2017-12-19T11:29:03.273Z,66.85
2017-12-19T11:31:34.256Z,66.81
2017-12-19T11:34:05.092Z,66.64
2017-12-19T11:36:34.433Z,66.55
2017-12-19T11:39:04.836Z,66.12
2017-12-19T11:41:34.124Z,66.52
2017-12-19T11:44:06.052Z,66.09
2017-12-19T11:46:35.314Z,65.19
2017-12-19T11:49:06.029Z,64.93
2017-12-19T11:51:35.573Z,64.22
2017-12-19T11:54:05.667Z,63.59
2017-12-19T11:56:34.874Z,63.85
2017-12-19T11:59:04.873Z,63.72
2017-12-19T12:01:34.215Z,63.09
2017-12-19T12:04:04.463Z,62.48
2017-12-19T12:06:33.719Z,62.72
2017-12-19T12:09:03.366Z,63.52
2017-12-19T12:11:33.152Z,63.88
2017-12-19T12:14:03.997Z,64.60
2017-12-19T12:16:33.339Z,64.55
2017-12-19T12:19:03.823Z,63.18
2017-12-19T12:21:33.066Z,61.84
2017-12-19T12:24:04.040Z,61.36
2017-12-19T12:26:33.298Z,61.65
2017-12-19T12:29:03.497Z,60.11
2017-12-19T12:31:33.447Z,60.00
2017-12-19T12:36:39.669Z,59.69
2017-12-19T12:39:10.554Z,58.81
2017-12-19T12:41:39.785Z,59.62
2017-12-19T12:44:09.056Z,61.45
2017-12-19T12:46:38.669Z,61.61
2017-12-19T12:49:07.940Z,61.12
2017-12-19T12:51:37.199Z,63.04
2017-12-19T12:54:07.055Z,62.54
2017-12-19T12:56:36.500Z,61.14
2017-12-19T12:59:05.755Z,61.14
2017-12-19T13:01:35.600Z,61.41
2017-12-19T13:04:06.232Z,61.15
2017-12-19T13:06:35.530Z,61.15
2017-12-19T13:09:06.261Z,63.05
2017-12-19T13:11:35.651Z,64.97
2017-12-19T13:14:06.106Z,64.00
2017-12-19T13:16:35.719Z,63.89
2017-12-19T13:19:05.360Z,63.72
2017-12-19T13:21:34.664Z,63.58
2017-12-19T13:24:05.494Z,63.77
2017-12-19T13:26:34.726Z,63.71
2017-12-19T13:29:04.459Z,63.80
2017-12-19T13:31:33.967Z,64.65
2017-12-19T13:34:04.320Z,65.07
2017-12-19T13:36:33.574Z,64.79
2017-12-19T13:39:05.071Z,65.06
2017-12-19T13:41:34.540Z,64.87
2017-12-19T13:44:06.033Z,64.56
2017-12-19T13:46:35.622Z,65.06
2017-12-19T13:49:05.690Z,66.26
2017-12-19T13:51:34.902Z,66.50
2017-12-19T13:54:05.376Z,66.27
2017-12-19T13:56:34.602Z,65.98
2017-12-19T13:59:04.489Z,66.15
2017-12-19T14:01:34.050Z,66.16
2017-12-19T14:06:41.521Z,67.12
2017-12-19T14:09:10.994Z,68.44
2017-12-19T14:11:40.307Z,68.44
2017-12-19T14:14:09.892Z,68.39
2017-12-19T14:16:40.166Z,68.32
2017-12-19T14:19:10.026Z,68.14
2017-12-19T14:21:39.549Z,68.09
2017-12-19T14:24:08.893Z,67.87
2017-12-19T14:26:38.161Z,68.74
2017-12-19T14:29:07.720Z,68.82
2017-12-19T14:31:36.975Z,69.28
2017-12-19T14:34:06.907Z,68.48
2017-12-19T14:36:36.459Z,68.59
2017-12-19T14:39:06.338Z,68.43
2017-12-19T14:41:35.596Z,68.15
2017-12-19T14:44:06.572Z,68.80
2017-12-19T14:46:35.819Z,70.06
2017-12-19T14:49:05.578Z,70.36
2017-12-19T14:51:35.163Z,69.79
2017-12-19T14:54:06.023Z,69.92
2017-12-19T14:56:37.614Z,69.42
2017-12-19T14:59:08.385Z,68.89
2017-12-19T15:01:37.623Z,68.68
2017-12-19T15:04:06.876Z,68.77
2017-12-19T15:06:36.376Z,69.10
2017-12-19T15:09:06.403Z,68.89
2017-12-19T15:11:35.658Z,68.85
2017-12-19T15:14:06.908Z,69.09
2017-12-19T15:16:36.421Z,69.67
2017-12-19T15:19:05.759Z,70.33
2017-12-19T15:21:35.341Z,70.62
2017-12-19T15:24:05.862Z,70.76
2017-12-19T15:26:35.138Z,70.21
2017-12-19T15:29:04.775Z,70.68
2017-12-19T15:31:33.997Z,70.35
2017-12-19T15:34:05.655Z,70.39
2017-12-19T15:36:34.999Z,70.91
2017-12-19T15:39:05.035Z,71.55
2017-12-19T15:41:34.558Z,71.34
2017-12-19T15:44:06.029Z,71.25
2017-12-19T15:46:35.457Z,71.53
2017-12-19T15:49:05.734Z,71.36
2017-12-19T15:51:35.378Z,70.73
2017-12-19T15:54:05.406Z,70.94
2017-12-19T15:56:35.008Z,71.26
2017-12-19T15:59:05.479Z,70.93
2017-12-19T16:01:34.788Z,71.72
2017-12-19T16:04:07.233Z,72.09
2017-12-19T16:06:36.664Z,72.63
2017-12-19T16:09:06.952Z,72.89
2017-12-19T16:11:36.319Z,72.51
2017-12-19T16:14:06.308Z,73.05
2017-12-19T16:16:35.899Z,73.26
2017-12-19T16:19:08.984Z,72.65
2017-12-19T16:21:38.273Z,73.10
2017-12-19T16:24:08.338Z,73.15
2017-12-19T16:26:37.762Z,73.63
2017-12-19T16:29:07.016Z,74.30
2017-12-19T16:31:36.817Z,73.88
2017-12-19T16:34:06.050Z,74.08
2017-12-19T16:36:35.281Z,74.19
2017-12-19T16:39:06.042Z,73.64
2017-12-19T16:41:35.263Z,72.76
2017-12-19T16:44:06.474Z,72.83
2017-12-19T16:46:35.700Z,73.56
2017-12-19T16:49:05.877Z,75.22
2017-12-19T16:51:35.480Z,75.09
2017-12-19T16:54:06.251Z,75.78
2017-12-19T16:56:35.509Z,75.84
2017-12-19T16:59:05.747Z,75.54
2017-12-19T17:01:34.998Z,75.91
2017-12-19T17:04:07.312Z,76.12
2017-12-19T17:06:36.871Z,76.18
2017-12-19T17:09:07.571Z,76.01
2017-12-19T17:11:36.927Z,76.49
2017-12-19T17:14:07.039Z,76.05
2017-12-19T17:16:36.251Z,76.08
2017-12-19T17:19:05.579Z,76.00
2017-12-19T17:21:34.888Z,75.80
2017-12-19T17:24:06.128Z,75.95
2017-12-19T17:26:35.619Z,76.39
2017-12-19T17:29:05.519Z,76.67
2017-12-19T17:31:35.100Z,76.13
2017-12-19T17:34:05.503Z,76.34
2017-12-19T17:36:34.760Z,75.84
2017-12-19T17:39:04.308Z,76.66
2017-12-19T17:41:33.918Z,76.99
2017-12-19T17:44:04.542Z,76.53
2017-12-19T17:46:33.753Z,76.76
2017-12-19T17:49:04.255Z,76.86
2017-12-19T17:51:35.347Z,77.07
2017-12-19T17:54:05.886Z,77.30
2017-12-19T17:56:35.462Z,77.78
2017-12-19T17:59:05.218Z,77.80
2017-12-19T18:01:34.502Z,78.20
2017-12-19T18:04:04.688Z,78.70
2017-12-19T18:06:34.309Z,79.03
2017-12-19T18:09:05.442Z,79.62
2017-12-19T18:11:34.656Z,79.27
2017-12-19T18:14:07.294Z,79.05
2017-12-19T18:16:36.832Z,78.92
2017-12-19T18:19:06.134Z,79.21
2017-12-19T18:21:35.444Z,79.09
2017-12-19T18:24:06.363Z,79.02
2017-12-19T18:26:35.622Z,78.90
2017-12-19T18:29:05.811Z,79.83
2017-12-19T18:31:35.109Z,79.92
2017-12-19T18:34:05.916Z,79.84
2017-12-19T18:36:35.426Z,79.96
2017-12-19T18:39:06.311Z,79.92
2017-12-19T18:41:35.692Z,79.85
2017-12-19T18:44:07.500Z,80.22
2017-12-19T18:46:37.313Z,80.00
2017-12-19T18:49:10.713Z,79.98
2017-12-19T18:51:40.483Z,80.36
2017-12-19T18:54:30.059Z,80.27
2017-12-19T18:57:00.941Z,79.98
2017-12-19T18:59:33.092Z,80.15
2017-12-19T19:02:05.345Z,80.72
2017-12-19T19:04:38.080Z,80.37
2017-12-19T19:07:11.108Z,80.01
2017-12-19T19:09:43.387Z,80.34
2017-12-19T19:12:14.331Z,80.57
2017-12-19T19:14:44.027Z,80.72
2017-12-19T19:17:14.594Z,80.82
2017-12-19T19:22:35.628Z,80.77
2017-12-19T19:25:06.429Z,80.29
2017-12-19T19:27:36.185Z,80.28
2017-12-19T19:30:06.919Z,80.85
2017-12-19T19:32:36.314Z,81.28
2017-12-19T19:35:07.145Z,81.54
2017-12-19T19:37:39.481Z,82.04
2017-12-19T19:40:09.080Z,82.29
2017-12-19T19:42:40.199Z,82.02
2017-12-19T19:45:11.457Z,81.68
2017-12-19T19:47:40.691Z,81.87
2017-12-19T19:50:09.952Z,81.41
2017-12-19T19:52:39.602Z,81.89
2017-12-19T19:55:10.357Z,81.84
2017-12-19T19:57:39.606Z,81.30
2017-12-19T20:00:09.112Z,81.31
2017-12-19T20:02:38.454Z,81.26
2017-12-19T20:05:07.716Z,81.24
2017-12-19T20:07:37.249Z,81.14
2017-12-19T20:10:06.592Z,80.74
2017-12-19T20:12:35.811Z,81.01
2017-12-19T20:15:05.447Z,81.39
2017-12-19T20:17:35.108Z,81.28
2017-12-19T20:20:06.733Z,81.92
2017-12-19T20:22:36.286Z,81.91
2017-12-19T20:25:06.050Z,81.69
2017-12-19T20:27:35.310Z,81.40
2017-12-19T20:30:05.845Z,80.95
2017-12-19T20:32:35.106Z,81.70
2017-12-19T20:35:05.118Z,81.60
2017-12-19T20:37:34.664Z,81.57
2017-12-19T20:40:04.910Z,82.17
2017-12-19T20:42:34.118Z,82.26
2017-12-19T20:45:03.965Z,81.91
2017-12-19T20:47:33.203Z,82.44
2017-12-19T20:50:04.683Z,82.16
2017-12-19T20:52:34.094Z,82.68
2017-12-19T20:55:04.566Z,82.61
2017-12-19T20:57:34.104Z,82.37
2017-12-19T21:00:04.459Z,82.34
2017-12-19T21:02:33.656Z,82.55
2017-12-19T21:05:04.482Z,82.41
2017-12-19T21:07:33.745Z,82.82
2017-12-19T21:10:03.821Z,82.69
2017-12-19T21:12:33.319Z,82.82
2017-12-19T21:15:03.388Z,82.94
2017-12-19T21:17:32.739Z,82.69
2017-12-19T21:20:03.704Z,82.60
2017-12-19T21:22:32.961Z,82.45
2017-12-19T21:25:02.381Z,82.64
2017-12-19T21:27:32.234Z,82.54
2017-12-19T21:30:02.268Z,82.60
2017-12-19T21:32:31.590Z,83.24
2017-12-19T21:35:01.485Z,82.74
2017-12-19T21:37:30.739Z,82.44
2017-12-19T21:40:02.331Z,83.39
2017-12-19T21:42:31.905Z,83.39
2017-12-19T21:45:01.790Z,83.43
2017-12-19T21:47:31.312Z,83.64
2017-12-19T21:50:00.696Z,82.95
2017-12-19T21:52:29.936Z,83.49
2017-12-19T21:55:00.171Z,84.33
2017-12-19T21:57:29.514Z,84.62
2017-12-19T21:59:59.941Z,84.33
2017-12-19T22:02:29.739Z,84.36
2017-12-19T22:04:58.978Z,83.24
2017-12-19T22:07:28.218Z,84.09
2017-12-19T22:09:57.739Z,84.34
2017-12-19T22:12:26.963Z,84.08
2017-12-19T22:14:56.190Z,84.46
2017-12-19T22:17:25.585Z,84.40
2017-12-19T22:19:54.863Z,83.82
2017-12-19T22:22:24.500Z,84.02
2017-12-19T22:24:53.841Z,84.07
2017-12-19T22:27:23.129Z,83.54
2017-12-19T22:29:53.212Z,83.89
2017-12-19T22:32:22.426Z,83.62
2017-12-19T22:35:02.985Z,83.97
2017-12-19T22:37:32.781Z,84.66
2017-12-19T22:40:03.441Z,85.00
2017-12-19T22:42:32.783Z,84.70
2017-12-19T22:45:03.817Z,84.38
2017-12-19T22:47:33.113Z,83.87
2017-12-19T22:50:04.543Z,82.97
2017-12-19T22:52:33.795Z,83.30
2017-12-19T22:55:03.317Z,83.40
2017-12-19T22:57:32.877Z,84.27
2017-12-19T23:00:02.896Z,84.58
2017-12-19T23:02:32.139Z,84.95
2017-12-19T23:05:03.223Z,84.71
2017-12-19T23:07:32.457Z,83.25
2017-12-19T23:10:04.703Z,83.52
2017-12-19T23:12:34.242Z,83.57
2017-12-19T23:15:03.743Z,83.20
2017-12-19T23:17:33.039Z,82.96
2017-12-19T23:20:04.392Z,83.72
2017-12-19T23:22:33.884Z,83.71
2017-12-19T23:25:03.615Z,82.99
2017-12-19T23:27:32.880Z,83.33
2017-12-19T23:30:03.521Z,84.20
2017-12-19T23:32:33.015Z,83.78
2017-12-19T23:35:02.557Z,83.91
2017-12-19T23:37:31.791Z,83.81
2017-12-19T23:40:03.778Z,83.93
2017-12-19T23:42:33.419Z,84.13
2017-12-19T23:45:03.757Z,84.24
2017-12-19T23:47:33.244Z,84.12
2017-12-19T23:50:03.286Z,83.63
2017-12-19T23:52:32.531Z,84.11
2017-12-19T23:55:03.089Z,84.65
2017-12-19T23:57:32.292Z,84.46
